This is the latest recevied weather packets stored in our database for station/object WV5G-13. If no packets are shown the sender has not sent any weather packets the latest 10 day(s).
| Time | Temp. | Humidity | Pressure | Rain* | Wind** | Luminosity | Snow |
|---|---|---|---|---|---|---|---|
| 1777684568 | 11.67° C | 65% | 1017.5 hPa | 0 mm | - | 15 W/m² | - |
| 1777684263 | 11.67° C | 65% | 1017.6 hPa | 0 mm | - | 18 W/m² | - |
| 1777683961 | 11.67° C | 64% | 1017.6 hPa | 0 mm | - | 20 W/m² | - |
| 1777683657 | 11.67° C | 64% | 1017.6 hPa | 0 mm | - | 25 W/m² | - |
| 1777683355 | 11.67° C | 63% | 1017.5 hPa | 0 mm | - | 29 W/m² | - |
| 1777683052 | 12.22° C | 62% | 1017.5 hPa | 0 mm | - | 42 W/m² | - |
| 1777682743 | 12.78° C | 62% | 1017.4 hPa | 0 mm | - | 53 W/m² | - |
| 1777682439 | 12.78° C | 61% | 1017.2 hPa | 0 mm | - | 67 W/m² | - |
| 1777682138 | 12.78° C | 61% | 1017.4 hPa | 0 mm | - | 82 W/m² | - |
| 1777681834 | 12.78° C | 62% | 1017.2 hPa | 0 mm | - | 93 W/m² | - |
| 1777681531 | 12.78° C | 61% | 1017.1 hPa | 0 mm | - | 105 W/m² | - |
| 1777681228 | 13.33° C | 59% | 1017.1 hPa | 0 mm | - | 96 W/m² | - |
| 1777680926 | 12.78° C | 60% | 1017.1 hPa | 0 mm | - | 120 W/m² | - |
| 1777680623 | 13.89° C | 57% | 1017.1 hPa | 0 mm | - | 144 W/m² | - |
| 1777680321 | 13.89° C | 56% | 1017 hPa | 0 mm | - | 160 W/m² | - |
| 1777680018 | 13.89° C | 56% | 1017.2 hPa | 0 mm | - | 162 W/m² | - |
| 1777679713 | 13.89° C | 58% | 1017 hPa | 0 mm | - | 192 W/m² | - |
| 1777679409 | 13.89° C | 57% | 1017.4 hPa | 0 mm | - | 236 W/m² | - |
| 1777679105 | 13.89° C | 57% | 1017.1 hPa | 0 mm | - | 283 W/m² | - |
| 1777678803 | 13.89° C | 56% | 1017.1 hPa | 0 mm | - | 260 W/m² | - |
| 1777678501 | 13.33° C | 59% | 1016.9 hPa | 0 mm | - | 278 W/m² | - |
| 1777678197 | 12.78° C | 60% | 1017 hPa | 0 mm | - | 144 W/m² | - |
| 1777677894 | 12.78° C | 59% | 1017.1 hPa | 0 mm | - | 114 W/m² | - |
| 1777677591 | 12.78° C | 58% | 1017.2 hPa | 0 mm | - | 170 W/m² | - |
| 1777677289 | 13.33° C | 57% | 1017.2 hPa | 0 mm | - | 364 W/m² | - |
* Rain latest hour (hover to see other rain measurements)
** Current wind speed in m/s (hover to see current wind gust speed)